Terminal Aerodrome Forecast
Issued by NWS

Current Version | Previous Version | Text Only | Print | Product List | Glossary On
Versions: 1 2 3 4 5 6 7 8 9 10 11 12 13
021
FTUS44 KLIX 220522
TAFGPT
TAF
KGPT 220522Z 2206/2306 13009KT P6SM OVC008
     FM221200 14010G18KT 5SM SHRA OVC015
      TEMPO 2212/2216 VRB15G25KT 2SM TSRA OVC007CB
     FM221600 16015G24KT 5SM SHRA VCTS OVC015CB
     FM222000 18014G22KT P6SM VCSH OVC025
     FM230400 25008KT P6SM BKN050=

USA.gov is the U.S. government's official web portal to all federal, state and local government web resources and services.